Glenville, MN

10:53 PM CDT on September 03, 2015 (GMT -0500)
KMNGLENV5 | | Change Station
CLOSE
Current Station
Personal Weather Station
Location: Glenville, MN
Elevation: 1320 ft
Nearby Weather Stations

Elev 1320 ft 43.54 °N, 93.24 °W | Updated 8 minutes ago

Clear
Clear
76.8 °F
Feels Like 77 °F
N
9.8
Wind Variable Wind from SW
Gusts 10.7 mph

Today
High -- | Low -- °F
--% Chance of Precip.
Yesterday
High -- | Low -- °F
Precip. -- in
6:38 AM 7:45 PM
Waning Gibbous, 64% visible
Pressure 29.91 in
Visibility 10.0 miles
Clouds Scattered Clouds 11000 ft
Heat Index 77 °F
Dew Point 75 °F
Humidity 95%
Rainfall 0.00 in
Snow Depth Not available.
UV 0 out of 12
Pollen 10.10 out of 12
Air Quality Not available.
Flu Activity Not available.
METAR KAEL 040333Z AUTO 14004KT 10SM SCT110 26/23 A2991 RMK AO2
Pressure 29.91 in
Visibility 10.0 miles
Clouds Scattered Clouds 11000 ft
Heat Index 77 °F
Dew Point 75 °F
Humidity 95%
Rainfall 0.00 in
Snow Depth Not available.
UV 0 out of 12
Pollen 10.10 out of 12
Air Quality Not available.
Flu Activity Not available.
METAR KAEL 040333Z AUTO 14004KT 10SM SCT110 26/23 A2991 RMK AO2

10-Day Weather Forecast

×

Almanac

Astronomy

Sep. 03, 2015 Rise Set
Actual Time
Civil Twilight
Nautical Twilight
Astronomical Twilight
Moon
Length of Visible Light
Length of Day
Tomorrow will be .
, % of the Moon is Illuminated

Today's Extremes

State Highs State Lows

Community

WunderPhotos

Upload Photos

1,852,118 photos uploaded!

WunderBlogs® & News

Nearby

Air Quality

  Air Quality AQ Index Pollutant
Not available.

Snow Depth

Station Depth Elevation

Earthquake Activity

City Distance Mag. Time & Date
Minimum magnitude displayed is 2.5.

Coastal Water Temperatures

Place Temperature

Stations

Nearby Weather Stations

Station Location Temp. Windchill Dew Point Humidity Wind Precip. Elev Updated Type